sensor_id;sensor_type;location;lat;lon;timestamp;P1;durP1;ratioP1;P2;durP2;ratioP2
49566;SDS011;35472;50.514;30.448;2022-11-15T00:00:02;7.55;;;5.10;;
49566;SDS011;35472;50.514;30.448;2022-11-15T00:02:46;7.68;;;5.82;;
49566;SDS011;35472;50.514;30.448;2022-11-15T00:05:34;6.72;;;4.40;;
49566;SDS011;35472;50.514;30.448;2022-11-15T00:08:19;8.98;;;5.47;;
49566;SDS011;35472;50.514;30.448;2022-11-15T00:11:03;8.00;;;5.38;;
49566;SDS011;35472;50.514;30.448;2022-11-15T00:13:47;7.22;;;5.25;;
49566;SDS011;35472;50.514;30.448;2022-11-15T00:16:31;8.52;;;5.32;;
49566;SDS011;35472;50.514;30.448;2022-11-15T00:19:15;5.88;;;4.95;;
49566;SDS011;35472;50.514;30.448;2022-11-15T00:21:58;6.65;;;5.40;;
49566;SDS011;35472;50.514;30.448;2022-11-15T00:24:42;6.03;;;3.90;;
49566;SDS011;35472;50.514;30.448;2022-11-15T00:27:26;6.90;;;3.65;;
49566;SDS011;35472;50.514;30.448;2022-11-15T00:30:11;5.65;;;4.53;;
49566;SDS011;35472;50.514;30.448;2022-11-15T00:32:56;7.30;;;4.82;;
49566;SDS011;35472;50.514;30.448;2022-11-15T00:35:40;11.18;;;5.45;;
49566;SDS011;35472;50.514;30.448;2022-11-15T00:38:24;16.42;;;6.43;;
49566;SDS011;35472;50.514;30.448;2022-11-15T00:41:08;9.05;;;5.03;;
49566;SDS011;35472;50.514;30.448;2022-11-15T00:43:52;6.25;;;5.38;;
49566;SDS011;35472;50.514;30.448;2022-11-15T00:46:36;11.07;;;5.10;;
49566;SDS011;35472;50.514;30.448;2022-11-15T00:49:21;11.57;;;5.90;;
49566;SDS011;35472;50.514;30.448;2022-11-15T00:52:05;8.35;;;4.93;;
49566;SDS011;35472;50.514;30.448;2022-11-15T00:54:49;6.57;;;4.75;;
49566;SDS011;35472;50.514;30.448;2022-11-15T00:57:33;7.30;;;4.60;;
49566;SDS011;35472;50.514;30.448;2022-11-15T01:00:17;8.63;;;4.55;;
49566;SDS011;35472;50.514;30.448;2022-11-15T01:03:01;6.82;;;4.68;;
49566;SDS011;35472;50.514;30.448;2022-11-15T01:05:45;7.50;;;4.50;;
49566;SDS011;35472;50.514;30.448;2022-11-15T01:08:29;8.93;;;5.05;;
49566;SDS011;35472;50.514;30.448;2022-11-15T01:11:13;5.63;;;5.05;;
49566;SDS011;35472;50.514;30.448;2022-11-15T01:13:57;6.43;;;4.65;;
49566;SDS011;35472;50.514;30.448;2022-11-15T01:16:41;6.05;;;5.13;;
49566;SDS011;35472;50.514;30.448;2022-11-15T01:19:25;6.03;;;4.63;;
49566;SDS011;35472;50.514;30.448;2022-11-15T01:22:10;6.25;;;4.80;;
49566;SDS011;35472;50.514;30.448;2022-11-15T01:24:54;6.13;;;4.55;;
49566;SDS011;35472;50.514;30.448;2022-11-15T01:27:38;5.90;;;4.75;;
49566;SDS011;35472;50.514;30.448;2022-11-15T01:30:22;7.80;;;3.97;;
49566;SDS011;35472;50.514;30.448;2022-11-15T01:33:05;5.10;;;4.00;;
49566;SDS011;35472;50.514;30.448;2022-11-15T01:35:49;8.05;;;3.85;;
49566;SDS011;35472;50.514;30.448;2022-11-15T01:38:34;5.23;;;4.03;;
49566;SDS011;35472;50.514;30.448;2022-11-15T01:47:29;7.10;;;5.32;;
49566;SDS011;35472;50.514;30.448;2022-11-15T01:50:19;5.90;;;4.20;;
49566;SDS011;35472;50.514;30.448;2022-11-15T01:53:08;4.57;;;3.08;;
49566;SDS011;35472;50.514;30.448;2022-11-15T01:55:54;3.72;;;2.75;;
49566;SDS011;35472;50.514;30.448;2022-11-15T01:58:39;6.22;;;3.92;;
49566;SDS011;35472;50.514;30.448;2022-11-15T02:01:25;4.90;;;3.33;;
49566;SDS011;35472;50.514;30.448;2022-11-15T02:04:16;6.05;;;3.30;;
49566;SDS011;35472;50.514;30.448;2022-11-15T02:07:04;5.90;;;3.22;;
49566;SDS011;35472;50.514;30.448;2022-11-15T02:09:50;5.50;;;3.40;;
49566;SDS011;35472;50.514;30.448;2022-11-15T02:12:35;6.32;;;3.40;;
49566;SDS011;35472;50.514;30.448;2022-11-15T02:15:20;4.70;;;2.92;;
49566;SDS011;35472;50.514;30.448;2022-11-15T02:18:15;5.38;;;3.63;;
49566;SDS011;35472;50.514;30.448;2022-11-15T02:21:04;4.82;;;3.17;;
49566;SDS011;35472;50.514;30.448;2022-11-15T02:30:23;4.20;;;3.10;;
49566;SDS011;35472;50.514;30.448;2022-11-15T02:39:12;5.10;;;2.72;;
49566;SDS011;35472;50.514;30.448;2022-11-15T02:42:11;5.65;;;3.35;;
49566;SDS011;35472;50.514;30.448;2022-11-15T02:45:24;5.28;;;3.35;;
49566;SDS011;35472;50.514;30.448;2022-11-15T02:48:13;5.72;;;3.28;;
49566;SDS011;35472;50.514;30.448;2022-11-15T02:50:59;4.18;;;3.40;;
49566;SDS011;35472;50.514;30.448;2022-11-15T02:53:44;3.92;;;3.50;;
49566;SDS011;35472;50.514;30.448;2022-11-15T02:56:28;4.43;;;3.13;;
49566;SDS011;35472;50.514;30.448;2022-11-15T03:02:42;4.07;;;3.45;;
49566;SDS011;35472;50.514;30.448;2022-11-15T03:05:45;4.43;;;3.40;;
49566;SDS011;35472;50.514;30.448;2022-11-15T03:08:53;4.45;;;4.05;;
49566;SDS011;35472;50.514;30.448;2022-11-15T03:11:49;5.05;;;4.07;;
49566;SDS011;35472;50.514;30.448;2022-11-15T03:14:37;9.85;;;5.28;;
49566;SDS011;35472;50.514;30.448;2022-11-15T03:17:35;7.93;;;3.70;;
49566;SDS011;35472;50.514;30.448;2022-11-15T03:20:21;7.95;;;4.95;;
49566;SDS011;35472;50.514;30.448;2022-11-15T03:23:10;6.95;;;4.65;;
49566;SDS011;35472;50.514;30.448;2022-11-15T03:25:54;6.78;;;5.00;;
49566;SDS011;35472;50.514;30.448;2022-11-15T03:31:36;6.55;;;5.38;;
49566;SDS011;35472;50.514;30.448;2022-11-15T03:37:33;7.40;;;4.95;;
49566;SDS011;35472;50.514;30.448;2022-11-15T03:40:22;7.72;;;4.60;;
49566;SDS011;35472;50.514;30.448;2022-11-15T03:49:16;8.02;;;5.50;;
49566;SDS011;35472;50.514;30.448;2022-11-15T03:52:06;8.10;;;4.57;;
49566;SDS011;35472;50.514;30.448;2022-11-15T03:54:51;6.63;;;4.07;;
49566;SDS011;35472;50.514;30.448;2022-11-15T03:57:37;9.80;;;5.25;;
49566;SDS011;35472;50.514;30.448;2022-11-15T04:00:21;10.75;;;4.85;;
49566;SDS011;35472;50.514;30.448;2022-11-15T04:03:05;10.35;;;6.95;;
49566;SDS011;35472;50.514;30.448;2022-11-15T04:05:51;9.13;;;5.15;;
49566;SDS011;35472;50.514;30.448;2022-11-15T04:08:35;10.45;;;5.85;;
49566;SDS011;35472;50.514;30.448;2022-11-15T04:11:19;12.38;;;6.18;;
49566;SDS011;35472;50.514;30.448;2022-11-15T04:14:03;11.38;;;6.90;;
49566;SDS011;35472;50.514;30.448;2022-11-15T04:16:47;9.85;;;6.32;;
49566;SDS011;35472;50.514;30.448;2022-11-15T04:19:34;7.68;;;6.20;;
49566;SDS011;35472;50.514;30.448;2022-11-15T04:22:37;10.02;;;5.80;;
49566;SDS011;35472;50.514;30.448;2022-11-15T04:25:41;10.25;;;6.13;;
49566;SDS011;35472;50.514;30.448;2022-11-15T04:28:26;12.60;;;6.80;;
49566;SDS011;35472;50.514;30.448;2022-11-15T04:31:10;8.32;;;6.78;;
49566;SDS011;35472;50.514;30.448;2022-11-15T04:33:54;11.88;;;7.43;;
49566;SDS011;35472;50.514;30.448;2022-11-15T04:36:38;13.40;;;8.30;;
49566;SDS011;35472;50.514;30.448;2022-11-15T04:39:41;15.50;;;8.82;;
49566;SDS011;35472;50.514;30.448;2022-11-15T04:42:30;15.52;;;8.73;;
49566;SDS011;35472;50.514;30.448;2022-11-15T04:45:14;13.98;;;8.45;;
49566;SDS011;35472;50.514;30.448;2022-11-15T04:50:43;16.08;;;10.00;;
49566;SDS011;35472;50.514;30.448;2022-11-15T04:53:27;15.52;;;8.75;;
49566;SDS011;35472;50.514;30.448;2022-11-15T04:56:11;12.30;;;8.32;;
49566;SDS011;35472;50.514;30.448;2022-11-15T05:01:39;13.73;;;7.85;;
49566;SDS011;35472;50.514;30.448;2022-11-15T05:04:23;13.95;;;8.68;;
49566;SDS011;35472;50.514;30.448;2022-11-15T05:07:07;12.85;;;8.13;;
49566;SDS011;35472;50.514;30.448;2022-11-15T05:09:51;13.05;;;8.77;;
49566;SDS011;35472;50.514;30.448;2022-11-15T05:12:35;15.98;;;7.75;;
49566;SDS011;35472;50.514;30.448;2022-11-15T05:15:19;12.07;;;8.23;;
49566;SDS011;35472;50.514;30.448;2022-11-15T05:18:03;17.10;;;8.70;;
49566;SDS011;35472;50.514;30.448;2022-11-15T05:20:47;14.73;;;8.88;;
49566;SDS011;35472;50.514;30.448;2022-11-15T05:23:31;15.10;;;9.85;;
49566;SDS011;35472;50.514;30.448;2022-11-15T05:26:15;22.05;;;10.63;;
49566;SDS011;35472;50.514;30.448;2022-11-15T05:29:01;15.80;;;9.88;;
49566;SDS011;35472;50.514;30.448;2022-11-15T05:31:46;15.80;;;9.57;;
49566;SDS011;35472;50.514;30.448;2022-11-15T05:34:30;13.95;;;10.18;;
49566;SDS011;35472;50.514;30.448;2022-11-15T05:39:59;21.13;;;8.90;;
49566;SDS011;35472;50.514;30.448;2022-11-15T05:42:43;16.75;;;10.23;;
49566;SDS011;35472;50.514;30.448;2022-11-15T05:45:29;19.02;;;10.73;;
49566;SDS011;35472;50.514;30.448;2022-11-15T05:48:13;23.90;;;10.70;;
49566;SDS011;35472;50.514;30.448;2022-11-15T05:50:58;18.17;;;10.15;;
49566;SDS011;35472;50.514;30.448;2022-11-15T05:53:43;16.65;;;9.82;;
49566;SDS011;35472;50.514;30.448;2022-11-15T05:56:28;15.23;;;10.43;;
49566;SDS011;35472;50.514;30.448;2022-11-15T05:59:13;24.80;;;12.00;;
49566;SDS011;35472;50.514;30.448;2022-11-15T06:01:57;15.70;;;11.20;;
49566;SDS011;35472;50.514;30.448;2022-11-15T06:04:41;22.45;;;11.10;;
49566;SDS011;35472;50.514;30.448;2022-11-15T06:07:25;19.27;;;11.88;;
49566;SDS011;35472;50.514;30.448;2022-11-15T06:10:09;19.37;;;10.73;;
49566;SDS011;35472;50.514;30.448;2022-11-15T06:15:45;23.50;;;11.40;;
49566;SDS011;35472;50.514;30.448;2022-11-15T06:18:31;22.35;;;11.38;;
49566;SDS011;35472;50.514;30.448;2022-11-15T06:21:17;28.25;;;11.02;;
49566;SDS011;35472;50.514;30.448;2022-11-15T06:24:01;20.27;;;10.55;;
49566;SDS011;35472;50.514;30.448;2022-11-15T06:26:45;19.52;;;10.35;;
49566;SDS011;35472;50.514;30.448;2022-11-15T06:29:29;18.85;;;9.57;;
49566;SDS011;35472;50.514;30.448;2022-11-15T06:32:13;20.42;;;10.32;;
49566;SDS011;35472;50.514;30.448;2022-11-15T06:34:57;16.98;;;9.98;;
49566;SDS011;35472;50.514;30.448;2022-11-15T06:37:42;17.70;;;8.73;;
49566;SDS011;35472;50.514;30.448;2022-11-15T06:43:10;15.65;;;8.50;;
49566;SDS011;35472;50.514;30.448;2022-11-15T06:45:55;14.45;;;8.68;;
49566;SDS011;35472;50.514;30.448;2022-11-15T06:48:39;14.55;;;7.50;;
49566;SDS011;35472;50.514;30.448;2022-11-15T06:51:23;12.48;;;7.75;;
49566;SDS011;35472;50.514;30.448;2022-11-15T06:54:07;21.17;;;9.38;;
49566;SDS011;35472;50.514;30.448;2022-11-15T06:56:51;14.07;;;7.55;;
49566;SDS011;35472;50.514;30.448;2022-11-15T06:59:34;14.38;;;8.80;;
49566;SDS011;35472;50.514;30.448;2022-11-15T07:02:18;14.25;;;8.25;;
49566;SDS011;35472;50.514;30.448;2022-11-15T07:05:02;16.58;;;10.45;;
49566;SDS011;35472;50.514;30.448;2022-11-15T07:07:53;20.40;;;8.73;;
49566;SDS011;35472;50.514;30.448;2022-11-15T07:10:38;16.48;;;8.90;;
49566;SDS011;35472;50.514;30.448;2022-11-15T07:13:24;15.45;;;8.65;;
49566;SDS011;35472;50.514;30.448;2022-11-15T07:16:09;14.48;;;7.85;;
49566;SDS011;35472;50.514;30.448;2022-11-15T07:18:54;17.58;;;8.68;;
49566;SDS011;35472;50.514;30.448;2022-11-15T07:21:38;15.27;;;7.93;;
49566;SDS011;35472;50.514;30.448;2022-11-15T07:24:25;15.13;;;9.70;;
49566;SDS011;35472;50.514;30.448;2022-11-15T07:27:09;12.23;;;8.05;;
49566;SDS011;35472;50.514;30.448;2022-11-15T07:29:53;18.55;;;9.38;;
49566;SDS011;35472;50.514;30.448;2022-11-15T07:32:37;14.18;;;7.97;;
49566;SDS011;35472;50.514;30.448;2022-11-15T07:35:21;9.85;;;7.15;;
49566;SDS011;35472;50.514;30.448;2022-11-15T07:40:55;13.30;;;7.47;;
49566;SDS011;35472;50.514;30.448;2022-11-15T07:43:40;16.27;;;8.48;;
49566;SDS011;35472;50.514;30.448;2022-11-15T07:46:24;17.25;;;8.75;;
49566;SDS011;35472;50.514;30.448;2022-11-15T07:49:08;9.43;;;6.20;;
49566;SDS011;35472;50.514;30.448;2022-11-15T07:51:52;13.98;;;8.43;;
49566;SDS011;35472;50.514;30.448;2022-11-15T07:54:36;12.77;;;7.72;;
49566;SDS011;35472;50.514;30.448;2022-11-15T07:57:20;13.50;;;8.52;;
49566;SDS011;35472;50.514;30.448;2022-11-15T08:00:04;16.52;;;10.35;;
49566;SDS011;35472;50.514;30.448;2022-11-15T08:02:49;14.25;;;8.88;;
49566;SDS011;35472;50.514;30.448;2022-11-15T08:05:33;17.65;;;10.00;;
49566;SDS011;35472;50.514;30.448;2022-11-15T08:08:18;13.63;;;8.20;;
49566;SDS011;35472;50.514;30.448;2022-11-15T08:11:02;16.27;;;8.00;;
49566;SDS011;35472;50.514;30.448;2022-11-15T08:13:47;17.15;;;8.20;;
49566;SDS011;35472;50.514;30.448;2022-11-15T08:16:31;13.88;;;8.23;;
49566;SDS011;35472;50.514;30.448;2022-11-15T08:19:15;10.80;;;6.75;;
49566;SDS011;35472;50.514;30.448;2022-11-15T08:21:59;13.95;;;8.05;;
49566;SDS011;35472;50.514;30.448;2022-11-15T08:24:43;14.75;;;8.27;;
49566;SDS011;35472;50.514;30.448;2022-11-15T08:27:28;13.13;;;8.52;;
49566;SDS011;35472;50.514;30.448;2022-11-15T08:30:12;12.50;;;7.68;;
49566;SDS011;35472;50.514;30.448;2022-11-15T08:32:57;12.98;;;7.95;;
49566;SDS011;35472;50.514;30.448;2022-11-15T08:35:42;15.90;;;10.80;;
49566;SDS011;35472;50.514;30.448;2022-11-15T08:38:27;16.95;;;8.77;;
49566;SDS011;35472;50.514;30.448;2022-11-15T08:41:28;11.82;;;8.48;;
49566;SDS011;35472;50.514;30.448;2022-11-15T08:44:15;16.20;;;9.52;;
49566;SDS011;35472;50.514;30.448;2022-11-15T08:46:59;15.98;;;9.77;;
49566;SDS011;35472;50.514;30.448;2022-11-15T08:49:43;14.18;;;8.45;;
49566;SDS011;35472;50.514;30.448;2022-11-15T08:52:27;10.55;;;7.97;;
49566;SDS011;35472;50.514;30.448;2022-11-15T08:55:11;11.48;;;8.15;;
49566;SDS011;35472;50.514;30.448;2022-11-15T08:57:56;12.60;;;7.75;;
49566;SDS011;35472;50.514;30.448;2022-11-15T09:00:41;13.73;;;8.70;;
49566;SDS011;35472;50.514;30.448;2022-11-15T09:03:25;14.20;;;8.68;;
49566;SDS011;35472;50.514;30.448;2022-11-15T09:06:09;10.82;;;7.32;;
49566;SDS011;35472;50.514;30.448;2022-11-15T09:08:53;13.48;;;8.20;;
49566;SDS011;35472;50.514;30.448;2022-11-15T09:11:36;13.65;;;9.50;;
49566;SDS011;35472;50.514;30.448;2022-11-15T09:14:20;13.48;;;7.80;;
49566;SDS011;35472;50.514;30.448;2022-11-15T09:17:07;12.32;;;8.02;;
49566;SDS011;35472;50.514;30.448;2022-11-15T09:19:52;10.73;;;8.02;;
49566;SDS011;35472;50.514;30.448;2022-11-15T09:22:36;15.30;;;8.70;;
49566;SDS011;35472;50.514;30.448;2022-11-15T09:25:22;12.57;;;8.18;;
49566;SDS011;35472;50.514;30.448;2022-11-15T09:28:06;16.27;;;7.65;;
49566;SDS011;35472;50.514;30.448;2022-11-15T09:30:55;9.77;;;6.57;;
49566;SDS011;35472;50.514;30.448;2022-11-15T09:33:40;13.10;;;8.30;;
49566;SDS011;35472;50.514;30.448;2022-11-15T09:36:26;11.05;;;7.60;;
49566;SDS011;35472;50.514;30.448;2022-11-15T09:39:11;11.82;;;7.07;;
49566;SDS011;35472;50.514;30.448;2022-11-15T09:45:13;14.25;;;8.50;;
49566;SDS011;35472;50.514;30.448;2022-11-15T09:51:01;14.40;;;9.75;;
49566;SDS011;35472;50.514;30.448;2022-11-15T09:53:52;14.52;;;8.70;;
49566;SDS011;35472;50.514;30.448;2022-11-15T09:56:22;12.80;;;8.35;;
49566;SDS011;35472;50.514;30.448;2022-11-15T13:21:00;22.05;;;12.70;;
49566;SDS011;35472;50.514;30.448;2022-11-15T13:23:51;24.15;;;14.98;;
49566;SDS011;35472;50.514;30.448;2022-11-15T13:26:18;29.50;;;15.82;;
49566;SDS011;35472;50.514;30.448;2022-11-15T13:28:46;22.70;;;14.55;;
49566;SDS011;35472;50.514;30.448;2022-11-15T13:31:24;27.25;;;15.10;;
49566;SDS011;35472;50.514;30.448;2022-11-15T13:34:29;23.33;;;14.48;;
49566;SDS011;35472;50.514;30.448;2022-11-15T13:36:50;24.33;;;14.80;;
49566;SDS011;35472;50.514;30.448;2022-11-15T13:39:32;26.70;;;13.82;;
49566;SDS011;35472;50.514;30.448;2022-11-15T13:42:01;24.65;;;14.27;;
49566;SDS011;35472;50.514;30.448;2022-11-15T13:44:30;28.85;;;14.20;;
49566;SDS011;35472;50.514;30.448;2022-11-15T13:47:04;26.95;;;16.02;;
49566;SDS011;35472;50.514;30.448;2022-11-15T13:49:33;23.73;;;13.55;;
49566;SDS011;35472;50.514;30.448;2022-11-15T13:52:03;24.58;;;13.70;;
49566;SDS011;35472;50.514;30.448;2022-11-15T13:54:42;23.13;;;14.18;;
49566;SDS011;35472;50.514;30.448;2022-11-15T13:57:11;21.88;;;13.90;;
49566;SDS011;35472;50.514;30.448;2022-11-15T13:59:47;21.95;;;13.73;;
49566;SDS011;35472;50.514;30.448;2022-11-15T14:02:16;24.13;;;13.82;;
49566;SDS011;35472;50.514;30.448;2022-11-15T14:04:53;23.23;;;14.98;;
49566;SDS011;35472;50.514;30.448;2022-11-15T14:07:22;21.50;;;13.82;;
49566;SDS011;35472;50.514;30.448;2022-11-15T14:09:50;21.80;;;12.63;;
49566;SDS011;35472;50.514;30.448;2022-11-15T14:14:59;22.50;;;15.07;;
49566;SDS011;35472;50.514;30.448;2022-11-15T14:19:53;22.58;;;13.02;;
49566;SDS011;35472;50.514;30.448;2022-11-15T14:22:20;20.70;;;13.30;;
49566;SDS011;35472;50.514;30.448;2022-11-15T14:28:07;35.75;;;19.88;;
49566;SDS011;35472;50.514;30.448;2022-11-15T14:30:32;28.33;;;15.35;;
49566;SDS011;35472;50.514;30.448;2022-11-15T14:32:58;29.15;;;14.93;;
49566;SDS011;35472;50.514;30.448;2022-11-15T14:35:23;20.27;;;13.27;;
49566;SDS011;35472;50.514;30.448;2022-11-15T14:37:49;27.05;;;13.15;;
49566;SDS011;35472;50.514;30.448;2022-11-15T14:40:16;22.63;;;14.38;;
49566;SDS011;35472;50.514;30.448;2022-11-15T14:42:43;20.35;;;12.75;;
49566;SDS011;35472;50.514;30.448;2022-11-15T14:45:11;24.80;;;14.35;;
49566;SDS011;35472;50.514;30.448;2022-11-15T14:47:39;23.15;;;13.50;;
49566;SDS011;35472;50.514;30.448;2022-11-15T14:50:05;22.23;;;13.90;;
49566;SDS011;35472;50.514;30.448;2022-11-15T14:52:31;26.35;;;16.08;;
49566;SDS011;35472;50.514;30.448;2022-11-15T14:55:02;26.17;;;13.75;;
49566;SDS011;35472;50.514;30.448;2022-11-15T14:57:34;23.10;;;15.55;;
49566;SDS011;35472;50.514;30.448;2022-11-15T14:59:59;20.83;;;13.38;;
49566;SDS011;35472;50.514;30.448;2022-11-15T15:02:38;23.90;;;15.68;;
49566;SDS011;35472;50.514;30.448;2022-11-15T15:05:12;23.02;;;15.02;;
49566;SDS011;35472;50.514;30.448;2022-11-15T15:07:41;23.55;;;15.60;;
49566;SDS011;35472;50.514;30.448;2022-11-15T15:10:06;24.67;;;14.57;;
49566;SDS011;35472;50.514;30.448;2022-11-15T15:12:32;27.63;;;16.13;;
49566;SDS011;35472;50.514;30.448;2022-11-15T15:14:58;21.58;;;14.60;;
49566;SDS011;35472;50.514;30.448;2022-11-15T15:17:23;31.80;;;20.13;;
49566;SDS011;35472;50.514;30.448;2022-11-15T15:19:49;28.00;;;15.65;;
49566;SDS011;35472;50.514;30.448;2022-11-15T15:22:18;22.27;;;13.40;;
49566;SDS011;35472;50.514;30.448;2022-11-15T15:24:47;28.08;;;15.60;;
49566;SDS011;35472;50.514;30.448;2022-11-15T15:27:13;28.42;;;16.85;;
49566;SDS011;35472;50.514;30.448;2022-11-15T15:29:39;29.20;;;16.58;;
49566;SDS011;35472;50.514;30.448;2022-11-15T15:32:05;28.65;;;16.95;;
49566;SDS011;35472;50.514;30.448;2022-11-15T15:34:31;35.60;;;19.73;;
49566;SDS011;35472;50.514;30.448;2022-11-15T15:37:09;37.33;;;18.90;;
49566;SDS011;35472;50.514;30.448;2022-11-15T15:39:51;28.67;;;16.83;;
49566;SDS011;35472;50.514;30.448;2022-11-15T15:42:22;34.50;;;17.30;;
49566;SDS011;35472;50.514;30.448;2022-11-15T15:44:48;42.40;;;16.48;;
49566;SDS011;35472;50.514;30.448;2022-11-15T15:47:16;31.38;;;17.92;;
49566;SDS011;35472;50.514;30.448;2022-11-15T15:49:44;27.00;;;15.52;;
49566;SDS011;35472;50.514;30.448;2022-11-15T15:52:10;31.70;;;16.70;;
49566;SDS011;35472;50.514;30.448;2022-11-15T15:54:36;26.90;;;14.38;;
49566;SDS011;35472;50.514;30.448;2022-11-15T15:57:03;23.73;;;13.90;;
49566;SDS011;35472;50.514;30.448;2022-11-15T15:59:28;21.85;;;13.25;;
49566;SDS011;35472;50.514;30.448;2022-11-15T16:01:54;26.88;;;14.30;;
49566;SDS011;35472;50.514;30.448;2022-11-15T16:04:19;21.20;;;13.38;;
49566;SDS011;35472;50.514;30.448;2022-11-15T16:06:45;25.00;;;14.55;;
49566;SDS011;35472;50.514;30.448;2022-11-15T16:09:12;27.42;;;14.85;;
49566;SDS011;35472;50.514;30.448;2022-11-15T16:11:43;22.92;;;15.32;;
49566;SDS011;35472;50.514;30.448;2022-11-15T16:14:09;21.23;;;13.68;;
49566;SDS011;35472;50.514;30.448;2022-11-15T16:16:36;19.92;;;13.13;;
49566;SDS011;35472;50.514;30.448;2022-11-15T16:19:02;21.20;;;14.50;;
49566;SDS011;35472;50.514;30.448;2022-11-15T16:21:28;24.42;;;14.25;;
49566;SDS011;35472;50.514;30.448;2022-11-15T16:23:54;21.73;;;13.60;;
49566;SDS011;35472;50.514;30.448;2022-11-15T16:26:28;22.17;;;13.98;;
49566;SDS011;35472;50.514;30.448;2022-11-15T16:28:55;25.55;;;14.25;;
49566;SDS011;35472;50.514;30.448;2022-11-15T16:31:20;22.05;;;13.27;;
49566;SDS011;35472;50.514;30.448;2022-11-15T16:33:49;20.73;;;14.25;;
49566;SDS011;35472;50.514;30.448;2022-11-15T16:36:21;23.58;;;15.57;;
49566;SDS011;35472;50.514;30.448;2022-11-15T16:38:48;22.35;;;11.80;;
49566;SDS011;35472;50.514;30.448;2022-11-15T16:41:14;21.85;;;14.23;;
49566;SDS011;35472;50.514;30.448;2022-11-15T16:43:46;24.73;;;15.13;;
49566;SDS011;35472;50.514;30.448;2022-11-15T16:48:45;23.05;;;14.55;;
49566;SDS011;35472;50.514;30.448;2022-11-15T16:51:11;26.55;;;13.95;;
49566;SDS011;35472;50.514;30.448;2022-11-15T16:53:36;22.30;;;15.20;;
49566;SDS011;35472;50.514;30.448;2022-11-15T16:56:02;22.58;;;14.50;;
49566;SDS011;35472;50.514;30.448;2022-11-15T16:58:28;24.27;;;14.32;;
49566;SDS011;35472;50.514;30.448;2022-11-15T17:00:54;22.35;;;14.63;;
49566;SDS011;35472;50.514;30.448;2022-11-15T17:03:21;21.92;;;12.90;;
49566;SDS011;35472;50.514;30.448;2022-11-15T17:05:48;19.58;;;14.52;;
49566;SDS011;35472;50.514;30.448;2022-11-15T17:08:14;19.85;;;11.65;;
49566;SDS011;35472;50.514;30.448;2022-11-15T17:10:39;19.23;;;12.32;;
49566;SDS011;35472;50.514;30.448;2022-11-15T17:13:10;17.63;;;11.20;;
49566;SDS011;35472;50.514;30.448;2022-11-15T17:15:37;17.40;;;12.13;;
49566;SDS011;35472;50.514;30.448;2022-11-15T17:18:02;16.63;;;12.25;;
49566;SDS011;35472;50.514;30.448;2022-11-15T17:20:28;21.10;;;12.27;;
49566;SDS011;35472;50.514;30.448;2022-11-15T17:22:54;18.50;;;12.80;;
49566;SDS011;35472;50.514;30.448;2022-11-15T17:25:20;17.08;;;11.85;;
49566;SDS011;35472;50.514;30.448;2022-11-15T17:27:45;21.30;;;11.38;;
49566;SDS011;35472;50.514;30.448;2022-11-15T17:30:11;17.48;;;10.98;;
49566;SDS011;35472;50.514;30.448;2022-11-15T17:32:39;16.83;;;11.00;;
49566;SDS011;35472;50.514;30.448;2022-11-15T17:35:05;20.48;;;13.65;;
49566;SDS011;35472;50.514;30.448;2022-11-15T17:37:31;22.20;;;13.35;;
49566;SDS011;35472;50.514;30.448;2022-11-15T17:39:57;25.23;;;12.75;;
49566;SDS011;35472;50.514;30.448;2022-11-15T17:42:23;21.13;;;12.02;;
49566;SDS011;35472;50.514;30.448;2022-11-15T17:44:48;18.23;;;12.45;;
49566;SDS011;35472;50.514;30.448;2022-11-15T17:47:14;19.52;;;12.02;;
49566;SDS011;35472;50.514;30.448;2022-11-15T17:49:39;19.95;;;13.60;;
49566;SDS011;35472;50.514;30.448;2022-11-15T17:52:06;21.33;;;12.15;;
49566;SDS011;35472;50.514;30.448;2022-11-15T17:54:32;20.95;;;13.30;;
49566;SDS011;35472;50.514;30.448;2022-11-15T17:56:57;21.25;;;12.80;;
49566;SDS011;35472;50.514;30.448;2022-11-15T17:59:23;19.08;;;13.20;;
49566;SDS011;35472;50.514;30.448;2022-11-15T18:01:48;16.30;;;12.27;;
49566;SDS011;35472;50.514;30.448;2022-11-15T18:04:14;18.30;;;12.27;;
49566;SDS011;35472;50.514;30.448;2022-11-15T18:06:39;18.90;;;13.07;;
49566;SDS011;35472;50.514;30.448;2022-11-15T18:09:05;19.08;;;12.68;;
49566;SDS011;35472;50.514;30.448;2022-11-15T18:11:35;21.27;;;12.60;;
49566;SDS011;35472;50.514;30.448;2022-11-15T18:14:05;18.50;;;12.57;;
49566;SDS011;35472;50.514;30.448;2022-11-15T18:16:35;22.25;;;12.48;;
49566;SDS011;35472;50.514;30.448;2022-11-15T18:19:01;21.58;;;13.65;;
49566;SDS011;35472;50.514;30.448;2022-11-15T18:21:33;18.48;;;13.70;;
49566;SDS011;35472;50.514;30.448;2022-11-15T18:23:59;18.92;;;12.68;;
49566;SDS011;35472;50.514;30.448;2022-11-15T18:26:27;19.50;;;13.20;;
49566;SDS011;35472;50.514;30.448;2022-11-15T18:28:55;19.88;;;14.15;;
49566;SDS011;35472;50.514;30.448;2022-11-15T18:31:26;21.27;;;11.65;;
49566;SDS011;35472;50.514;30.448;2022-11-15T18:33:53;19.08;;;12.32;;
49566;SDS011;35472;50.514;30.448;2022-11-15T18:36:23;21.73;;;13.60;;
49566;SDS011;35472;50.514;30.448;2022-11-15T18:39:00;20.15;;;11.73;;
49566;SDS011;35472;50.514;30.448;2022-11-15T18:41:27;17.65;;;12.63;;
49566;SDS011;35472;50.514;30.448;2022-11-15T18:43:57;17.88;;;10.88;;
49566;SDS011;35472;50.514;30.448;2022-11-15T18:46:25;25.60;;;15.55;;
49566;SDS011;35472;50.514;30.448;2022-11-15T18:48:52;18.13;;;12.02;;
49566;SDS011;35472;50.514;30.448;2022-11-15T18:51:19;17.08;;;12.18;;
49566;SDS011;35472;50.514;30.448;2022-11-15T18:53:47;22.17;;;13.13;;
49566;SDS011;35472;50.514;30.448;2022-11-15T18:56:13;18.80;;;12.57;;
49566;SDS011;35472;50.514;30.448;2022-11-15T18:58:42;14.80;;;11.35;;
49566;SDS011;35472;50.514;30.448;2022-11-15T19:01:13;19.83;;;12.57;;
49566;SDS011;35472;50.514;30.448;2022-11-15T19:03:41;21.52;;;12.35;;
49566;SDS011;35472;50.514;30.448;2022-11-15T19:06:08;15.98;;;11.70;;
49566;SDS011;35472;50.514;30.448;2022-11-15T19:08:36;17.35;;;11.63;;
49566;SDS011;35472;50.514;30.448;2022-11-15T19:13:29;19.80;;;13.75;;
49566;SDS011;35472;50.514;30.448;2022-11-15T19:16:01;17.60;;;11.57;;
49566;SDS011;35472;50.514;30.448;2022-11-15T19:18:28;18.63;;;12.25;;
49566;SDS011;35472;50.514;30.448;2022-11-15T19:20:54;19.08;;;11.15;;
49566;SDS011;35472;50.514;30.448;2022-11-15T19:23:21;17.48;;;11.32;;
49566;SDS011;35472;50.514;30.448;2022-11-15T19:25:58;16.08;;;11.65;;
49566;SDS011;35472;50.514;30.448;2022-11-15T19:28:25;16.58;;;11.25;;
49566;SDS011;35472;50.514;30.448;2022-11-15T19:30:52;19.80;;;12.23;;
49566;SDS011;35472;50.514;30.448;2022-11-15T19:33:17;16.65;;;11.23;;
49566;SDS011;35472;50.514;30.448;2022-11-15T19:35:43;18.88;;;12.20;;
49566;SDS011;35472;50.514;30.448;2022-11-15T19:38:09;21.20;;;12.32;;
49566;SDS011;35472;50.514;30.448;2022-11-15T19:40:35;14.02;;;10.23;;
49566;SDS011;35472;50.514;30.448;2022-11-15T19:43:01;17.70;;;9.88;;
49566;SDS011;35472;50.514;30.448;2022-11-15T19:45:27;17.50;;;12.10;;
49566;SDS011;35472;50.514;30.448;2022-11-15T19:47:52;16.25;;;11.25;;
49566;SDS011;35472;50.514;30.448;2022-11-15T19:50:17;17.98;;;10.80;;
49566;SDS011;35472;50.514;30.448;2022-11-15T19:52:43;17.38;;;11.00;;